Time;durP1;ratioP1;P1;durP2;ratioP2;P2;SDS_P1;SDS_P2;PMS_P1;PMS_P2;Temp;Humidity;BMP_temperature;BMP_pressure;BME280_temperature;BME280_humidity;BME280_pressure;Samples;Min_cycle;Max_cycle;Signal;HPM_P1;HPM_P2
2022/09/06 00:00:16;;;;;;;4.63;1.10;;;22.30;99.90;;;;;;5014450;28;20212;-69
2022/09/06 00:02:44;;;;;;;2.83;0.90;;;22.80;99.90;;;;;;5015253;28;20188;-68
2022/09/06 00:05:12;;;;;;;3.37;0.80;;;22.50;99.90;;;;;;5013906;28;20184;-68
2022/09/06 00:07:40;;;;;;;5.27;1.13;;;22.40;99.90;;;;;;5014280;28;20644;-67
2022/09/06 00:10:08;;;;;;;2.60;0.90;;;22.50;99.90;;;;;;5014704;28;20178;-70
2022/09/06 00:12:37;;;;;;;4.43;0.80;;;22.70;99.90;;;;;;4996913;28;20192;-69
2022/09/06 00:15:05;;;;;;;5.60;1.07;;;23.60;99.90;;;;;;5014224;28;20185;-67
2022/09/06 00:17:33;;;;;;;2.03;1.10;;;23.80;99.90;;;;;;5014605;28;20176;-69
2022/09/06 00:20:01;;;;;;;4.10;0.90;;;23.50;99.90;;;;;;4996479;28;20213;-67
2022/09/06 00:22:29;;;;;;;2.60;1.00;;;23.40;99.90;;;;;;5013787;28;20242;-67
2022/09/06 00:24:57;;;;;;;2.40;0.93;;;23.40;99.90;;;;;;5013892;28;20188;-66
2022/09/06 00:27:24;;;;;;;8.33;1.23;;;23.80;99.90;;;;;;5014067;28;20178;-68
2022/09/06 00:29:51;;;;;;;3.53;1.00;;;24.20;99.90;;;;;;5013733;28;20210;-69
2022/09/06 00:32:19;;;;;;;3.87;0.70;;;24.40;95.90;;;;;;5013999;28;20608;-69
2022/09/06 00:34:46;;;;;;;5.87;1.10;;;23.40;93.60;;;;;;5008994;28;20186;-69
2022/09/06 00:37:13;;;;;;;4.33;0.87;;;22.20;99.90;;;;;;4999142;28;20237;-69
2022/09/06 00:39:41;;;;;;;3.03;0.80;;;21.40;99.90;;;;;;4994194;28;20185;-68
2022/09/06 00:42:12;;;;;;;4.30;1.00;;;21.00;99.90;;;;;;4994049;28;20252;-68
2022/09/06 00:44:40;;;;;;;4.07;1.37;;;20.30;99.90;;;;;;5011416;28;20277;-67
2022/09/06 00:47:08;;;;;;;5.20;0.90;;;19.60;99.90;;;;;;5008014;28;20185;-67
2022/09/06 00:49:43;;;;;;;1.93;0.70;;;19.70;99.90;;;;;;4994048;28;20178;-67
2022/09/06 00:52:13;;;;;;;1.50;0.70;;;21.00;99.90;;;;;;5007398;28;20515;-68
2022/09/06 00:54:42;;;;;;;3.50;1.30;;;21.60;99.90;;;;;;5009002;28;20195;-66
2022/09/06 00:57:09;;;;;;;4.57;0.87;;;21.10;99.90;;;;;;5002467;28;20241;-67
2022/09/06 00:59:39;;;;;;;4.53;1.07;;;20.40;99.90;;;;;;4993808;28;20244;-66
2022/09/06 01:02:08;;;;;;;5.63;1.27;;;19.80;99.90;;;;;;5011279;28;20243;-66
2022/09/06 01:04:38;;;;;;;4.20;1.07;;;19.20;99.90;;;;;;4995560;28;20182;-66
2022/09/06 01:07:50;;;;;;;4.70;1.17;;;18.90;99.90;;;;;;5014182;28;20248;-73
2022/09/06 01:10:52;;;;;;;4.93;1.30;;;18.60;99.90;;;;;;5029825;28;20181;-74
2022/09/06 01:13:43;;;;;;;3.37;0.90;;;18.10;99.90;;;;;;4978757;28;20196;-80
2022/09/06 01:16:28;;;;;;;2.90;0.93;;;17.90;99.90;;;;;;5011430;28;20257;-68
2022/09/06 01:18:55;;;;;;;6.47;1.20;;;17.90;99.90;;;;;;5012125;28;20272;-71
2022/09/06 01:21:47;;;;;;;4.77;1.30;;;17.70;99.90;;;;;;5012442;28;20301;-69
2022/09/06 01:24:49;;;;;;;1.90;0.80;;;17.70;99.90;;;;;;5012737;28;20186;-68
2022/09/06 01:27:45;;;;;;;5.57;1.10;;;17.80;99.90;;;;;;5012225;28;20201;-72
2022/09/06 01:30:16;;;;;;;9.57;1.23;;;17.80;99.90;;;;;;5011841;28;20178;-68
2022/09/06 01:33:31;;;;;;;4.97;1.50;;;17.80;99.90;;;;;;5012854;28;20542;-69
2022/09/06 01:36:04;;;;;;;12.37;3.27;;;17.70;99.90;;;;;;5002219;28;20196;-70
2022/09/06 01:38:32;;;;;;;7.23;1.73;;;17.80;99.90;;;;;;5012663;28;20181;-70
2022/09/06 01:40:59;;;;;;;6.07;1.57;;;17.80;99.90;;;;;;5012211;28;20240;-71
2022/09/06 01:43:34;;;;;;;3.83;1.73;;;17.90;99.90;;;;;;5012246;28;20638;-71
2022/09/06 01:46:21;;;;;;;5.30;1.23;;;17.90;99.90;;;;;;4982634;28;20724;-69
2022/09/06 01:49:14;;;;;;;5.67;1.30;;;17.90;99.90;;;;;;4981472;28;20201;-67
2022/09/06 01:51:53;;;;;;;7.47;1.57;;;17.80;99.90;;;;;;5009557;28;20193;-69
2022/09/06 01:54:51;;;;;;;3.40;1.20;;;17.70;99.90;;;;;;5011880;28;20216;-70
2022/09/06 01:57:55;;;;;;;5.47;1.43;;;17.70;99.90;;;;;;5012003;28;20178;-70
2022/09/06 02:00:23;;;;;;;6.13;1.43;;;17.60;99.90;;;;;;5008338;28;20203;-72
2022/09/06 02:03:15;;;;;;;3.63;1.17;;;17.60;99.90;;;;;;5011835;28;20190;-70
2022/09/06 02:05:57;;;;;;;6.47;1.47;;;17.80;99.90;;;;;;5011834;28;20177;-70
2022/09/06 02:08:43;;;;;;;6.97;1.30;;;17.90;99.90;;;;;;5011957;28;20549;-69
2022/09/06 02:11:13;;;;;;;5.63;1.50;;;18.30;99.90;;;;;;5012300;28;20261;-70
2022/09/06 02:14:04;;;;;;;2.67;1.23;;;18.40;99.90;;;;;;5011251;28;20190;-68
2022/09/06 02:16:33;;;;;;;6.63;1.60;;;18.50;99.90;;;;;;5011690;28;20182;-70
2022/09/06 02:19:14;;;;;;;5.90;1.30;;;18.80;99.90;;;;;;5011929;28;20189;-69
2022/09/06 02:21:45;;;;;;;4.43;1.20;;;19.40;99.90;;;;;;5010991;28;20244;-69
2022/09/06 02:24:19;;;;;;;6.57;1.50;;;19.30;99.90;;;;;;5011869;28;20174;-69
2022/09/06 02:26:48;;;;;;;4.00;1.10;;;19.00;99.90;;;;;;5012090;28;20200;-70
2022/09/06 02:29:16;;;;;;;4.67;1.23;;;18.90;99.90;;;;;;5011357;28;20710;-71
2022/09/06 02:32:04;;;;;;;5.93;1.40;;;19.00;99.90;;;;;;5012017;28;20181;-69
2022/09/06 02:34:31;;;;;;;4.90;1.00;;;19.70;99.90;;;;;;4993519;28;20297;-71
2022/09/06 02:36:59;;;;;;;7.17;1.87;;;19.50;99.90;;;;;;5011640;28;20200;-70
2022/09/06 02:39:27;;;;;;;3.50;1.27;;;19.20;99.90;;;;;;5010720;28;20182;-75
2022/09/06 02:41:54;;;;;;;4.47;0.90;;;18.80;99.90;;;;;;5011644;28;20229;-71
2022/09/06 02:44:22;;;;;;;2.93;1.03;;;18.80;99.90;;;;;;5011754;28;20552;-74
2022/09/06 02:46:49;;;;;;;4.63;1.10;;;18.60;99.90;;;;;;5011681;28;20181;-75
2022/09/06 02:49:16;;;;;;;4.50;1.40;;;18.60;99.90;;;;;;5009944;28;20182;-71
2022/09/06 02:51:44;;;;;;;6.03;1.27;;;18.60;99.90;;;;;;5007065;28;20202;-72
2022/09/06 02:54:11;;;;;;;8.50;1.33;;;18.60;99.90;;;;;;4999774;28;20606;-69
2022/09/06 02:56:39;;;;;;;4.87;1.50;;;18.30;99.90;;;;;;4992118;28;20218;-70
2022/09/06 02:59:06;;;;;;;7.10;1.30;;;18.20;99.90;;;;;;5010786;28;20181;-68
2022/09/06 03:01:34;;;;;;;3.50;0.90;;;18.00;99.90;;;;;;4993586;28;20307;-70
2022/09/06 03:04:01;;;;;;;6.20;1.20;;;18.00;99.90;;;;;;4993910;28;20586;-70
2022/09/06 03:06:29;;;;;;;2.90;1.00;;;18.10;99.90;;;;;;5011501;28;20277;-70
2022/09/06 03:08:58;;;;;;;1.53;0.80;;;18.00;99.90;;;;;;5011616;28;20175;-69
2022/09/06 03:11:27;;;;;;;3.40;0.90;;;18.10;99.90;;;;;;5011446;28;20187;-70
2022/09/06 03:13:55;;;;;;;4.13;1.03;;;18.10;99.90;;;;;;5011477;28;20701;-70
2022/09/06 03:16:22;;;;;;;2.50;0.83;;;18.10;99.90;;;;;;5011634;28;20185;-76
2022/09/06 03:18:49;;;;;;;2.20;0.90;;;17.90;99.90;;;;;;5011456;28;20662;-70
2022/09/06 03:21:17;;;;;;;3.00;1.00;;;17.80;99.90;;;;;;5011157;28;20229;-68
2022/09/06 03:23:44;;;;;;;2.47;0.93;;;17.70;99.90;;;;;;5018149;28;20546;-68
2022/09/06 03:26:12;;;;;;;2.40;1.00;;;17.50;99.90;;;;;;5013112;28;20193;-69
2022/09/06 03:28:41;;;;;;;5.87;1.80;;;17.40;99.90;;;;;;5014931;28;20620;-75
2022/09/06 03:31:09;;;;;;;3.83;1.00;;;17.30;99.90;;;;;;5014431;28;20651;-70
2022/09/06 03:33:37;;;;;;;2.57;1.07;;;17.00;99.90;;;;;;5014610;28;20206;-70
2022/09/06 03:36:04;;;;;;;5.60;1.30;;;16.80;99.90;;;;;;5015483;28;20181;-72
2022/09/06 03:38:32;;;;;;;4.57;1.00;;;16.80;99.90;;;;;;5015360;28;20190;-70
2022/09/06 03:40:59;;;;;;;4.03;1.07;;;16.80;99.90;;;;;;5015253;28;20228;-75
2022/09/06 03:43:28;;;;;;;3.80;1.03;;;16.80;99.90;;;;;;5014680;28;20248;-69
2022/09/06 03:45:57;;;;;;;6.77;0.83;;;16.70;99.90;;;;;;5013073;28;20232;-75
2022/09/06 03:48:27;;;;;;;3.50;0.90;;;16.60;99.90;;;;;;5014713;28;20275;-69
2022/09/06 03:50:56;;;;;;;3.60;1.00;;;16.60;99.90;;;;;;5014274;28;20201;-73
2022/09/06 03:53:25;;;;;;;6.97;0.90;;;16.50;99.90;;;;;;5014292;28;20182;-73
2022/09/06 03:55:54;;;;;;;5.40;0.73;;;16.60;99.90;;;;;;4996724;28;20606;-68
2022/09/06 03:58:23;;;;;;;5.43;1.17;;;16.60;99.90;;;;;;5014499;28;20261;-72
2022/09/06 04:00:58;;;;;;;6.67;1.03;;;16.70;99.90;;;;;;5014152;28;20634;-70
2022/09/06 04:03:26;;;;;;;1.50;0.80;;;16.80;99.90;;;;;;5014481;28;20667;-69
2022/09/06 04:05:53;;;;;;;3.33;0.80;;;16.80;99.90;;;;;;4995989;28;20178;-69
2022/09/06 04:08:20;;;;;;;2.43;0.83;;;16.90;99.90;;;;;;5014251;28;20228;-69
2022/09/06 04:10:52;;;;;;;4.77;0.90;;;17.00;99.90;;;;;;5014109;28;20187;-73
2022/09/06 04:13:19;;;;;;;3.97;1.00;;;17.10;99.90;;;;;;4996806;28;20236;-70
2022/09/06 04:15:48;;;;;;;3.70;0.87;;;17.20;99.90;;;;;;5013940;28;20678;-70
2022/09/06 04:18:15;;;;;;;4.83;0.90;;;17.20;99.90;;;;;;5014028;28;20265;-70
2022/09/06 04:20:44;;;;;;;3.93;0.80;;;17.20;99.90;;;;;;5013660;28;20229;-69
2022/09/06 04:23:15;;;;;;;2.83;1.00;;;17.20;99.90;;;;;;5013478;28;20277;-73
2022/09/06 04:25:46;;;;;;;2.97;1.00;;;17.20;99.90;;;;;;5014081;28;20217;-72
2022/09/06 04:28:14;;;;;;;5.63;1.63;;;17.10;99.90;;;;;;5009670;28;20183;-69
2022/09/06 04:30:56;;;;;;;4.27;1.00;;;17.20;99.90;;;;;;5007429;28;20255;-72
2022/09/06 04:33:25;;;;;;;4.70;1.00;;;17.20;99.90;;;;;;5012826;28;20602;-70
2022/09/06 04:35:57;;;;;;;2.97;1.00;;;17.30;99.90;;;;;;5013902;28;20193;-69
2022/09/06 04:38:26;;;;;;;7.03;1.50;;;17.50;99.90;;;;;;4995256;28;20189;-67
2022/09/06 04:40:56;;;;;;;4.43;1.53;;;17.50;99.90;;;;;;5013413;28;20260;-69
2022/09/06 04:43:24;;;;;;;2.90;0.97;;;17.50;99.90;;;;;;5013809;28;20235;-68
2022/09/06 04:45:52;;;;;;;6.03;1.10;;;17.60;99.90;;;;;;5013353;28;20193;-72
2022/09/06 04:48:19;;;;;;;4.47;1.10;;;17.50;99.90;;;;;;5013685;28;20182;-70
2022/09/06 04:50:47;;;;;;;4.07;1.07;;;17.50;99.90;;;;;;4995906;28;20186;-71
2022/09/06 04:53:14;;;;;;;5.00;1.10;;;17.30;99.90;;;;;;4996008;28;20178;-70
2022/09/06 04:55:41;;;;;;;5.57;1.27;;;17.10;99.90;;;;;;5013307;28;20217;-68
2022/09/06 04:58:09;;;;;;;4.30;0.90;;;17.00;99.90;;;;;;4996029;28;20189;-71
2022/09/06 05:00:41;;;;;;;2.63;0.90;;;16.90;99.90;;;;;;5013361;28;20214;-69
2022/09/06 05:03:08;;;;;;;3.60;0.90;;;16.90;99.90;;;;;;5013571;28;20760;-69
2022/09/06 05:05:37;;;;;;;3.00;1.00;;;16.80;99.90;;;;;;4995394;28;20182;-71
2022/09/06 05:08:04;;;;;;;4.70;1.00;;;16.90;99.90;;;;;;5013523;28;20272;-69
2022/09/06 05:10:31;;;;;;;2.67;0.93;;;16.90;99.90;;;;;;5013108;28;20192;-69
2022/09/06 05:12:59;;;;;;;2.53;1.13;;;16.90;99.90;;;;;;5013161;28;20696;-69
2022/09/06 05:15:33;;;;;;;4.73;1.20;;;16.80;99.90;;;;;;5012912;28;20182;-69
2022/09/06 05:21:03;;;;;;;2.40;0.90;;;16.80;99.90;;;;;;5389544;23;20231;-70
2022/09/06 05:23:30;;;;;;;5.43;1.50;;;16.80;99.90;;;;;;5072916;28;20314;-71
2022/09/06 05:25:58;;;;;;;4.53;0.83;;;16.80;99.90;;;;;;5072701;28;20185;-70
2022/09/06 05:28:25;;;;;;;2.83;1.00;;;16.80;99.90;;;;;;5072239;28;20274;-73
2022/09/06 05:30:52;;;;;;;5.73;1.00;;;16.60;99.90;;;;;;5073159;28;20199;-71
2022/09/06 05:33:21;;;;;;;3.80;0.90;;;16.30;99.90;;;;;;5072280;28;20188;-69
2022/09/06 05:35:50;;;;;;;5.37;0.83;;;15.90;99.90;;;;;;5071132;28;20183;-69
2022/09/06 05:38:18;;;;;;;2.97;1.43;;;15.60;99.90;;;;;;5070949;28;20188;-69
2022/09/06 05:40:50;;;;;;;7.00;1.50;;;15.40;99.90;;;;;;5072321;28;20321;-69
2022/09/06 05:43:20;;;;;;;5.27;1.03;;;15.10;99.90;;;;;;5072197;28;20200;-71
2022/09/06 05:45:48;;;;;;;3.73;0.90;;;14.80;99.90;;;;;;5072246;28;20196;-70
2022/09/06 05:48:16;;;;;;;4.43;1.00;;;14.60;99.90;;;;;;5071114;28;20191;-70
2022/09/06 05:50:44;;;;;;;3.43;1.10;;;14.60;99.90;;;;;;5072353;28;20177;-70
2022/09/06 05:53:12;;;;;;;5.63;1.23;;;14.50;99.90;;;;;;5071667;28;20556;-69
2022/09/06 05:55:39;;;;;;;5.60;1.10;;;14.50;99.90;;;;;;5072249;28;20649;-73
2022/09/06 05:58:06;;;;;;;9.80;1.30;;;14.40;99.90;;;;;;5071513;28;20186;-72
2022/09/06 06:00:34;;;;;;;4.37;1.00;;;14.50;99.90;;;;;;5071653;28;20204;-70
2022/09/06 06:03:01;;;;;;;4.63;1.50;;;14.50;99.90;;;;;;5071892;28;20270;-68
2022/09/06 06:05:28;;;;;;;5.07;1.00;;;14.60;99.90;;;;;;5072276;28;20168;-70
2022/09/06 06:07:57;;;;;;;4.13;1.33;;;14.60;99.90;;;;;;5070329;28;20602;-74
2022/09/06 06:10:25;;;;;;;5.13;1.50;;;14.60;99.90;;;;;;5071816;28;20188;-69
2022/09/06 06:12:52;;;;;;;6.23;1.27;;;14.50;99.90;;;;;;5071730;28;20176;-70
2022/09/06 06:15:19;;;;;;;4.87;1.00;;;14.40;99.90;;;;;;5062765;28;20173;-75
2022/09/06 06:17:46;;;;;;;4.73;1.00;;;14.40;99.90;;;;;;5051951;28;20198;-72
2022/09/06 06:20:14;;;;;;;3.47;1.20;;;14.40;99.90;;;;;;5062645;28;20180;-77
2022/09/06 06:22:42;;;;;;;3.80;1.27;;;14.40;99.90;;;;;;5071655;28;20231;-74
2022/09/06 06:25:09;;;;;;;3.63;1.10;;;14.40;99.90;;;;;;5071745;28;20586;-74
2022/09/06 06:27:36;;;;;;;3.87;1.10;;;14.40;99.90;;;;;;5071871;28;20179;-71
2022/09/06 06:30:04;;;;;;;3.13;1.20;;;14.40;99.90;;;;;;5071385;28;20570;-74
2022/09/06 06:32:31;;;;;;;6.73;1.20;;;14.40;99.90;;;;;;5059587;28;20573;-74
2022/09/06 06:34:59;;;;;;;4.50;1.47;;;14.40;99.90;;;;;;5051667;28;20558;-71
2022/09/06 06:37:26;;;;;;;7.13;1.60;;;14.40;99.90;;;;;;5053636;28;20175;-67
2022/09/06 06:39:53;;;;;;;5.60;1.40;;;14.40;99.90;;;;;;5063784;28;20183;-73
2022/09/06 06:42:21;;;;;;;5.10;1.47;;;14.30;99.90;;;;;;5081052;28;20779;-73
2022/09/06 06:44:48;;;;;;;7.23;1.60;;;14.30;99.90;;;;;;5093699;28;20182;-73
2022/09/06 06:47:15;;;;;;;5.20;1.73;;;14.30;99.90;;;;;;5092686;28;20204;-72
2022/09/06 06:49:43;;;;;;;6.47;1.90;;;14.30;99.90;;;;;;5091975;28;20266;-73
2022/09/06 06:52:10;;;;;;;8.20;2.00;;;14.40;99.90;;;;;;5091667;28;20178;-73
2022/09/06 06:54:38;;;;;;;11.27;2.60;;;14.40;99.90;;;;;;5091779;28;20178;-74
2022/09/06 06:57:08;;;;;;;6.27;1.73;;;14.50;99.90;;;;;;5090395;28;20586;-74
2022/09/06 06:59:35;;;;;;;7.97;1.40;;;14.70;99.90;;;;;;5091484;28;20187;-73
2022/09/06 07:02:03;;;;;;;4.63;1.50;;;14.70;99.90;;;;;;5094634;28;20675;-74
2022/09/06 07:04:30;;;;;;;6.13;1.40;;;14.70;99.90;;;;;;5095935;28;20228;-73
2022/09/06 07:06:58;;;;;;;5.40;1.50;;;14.60;99.90;;;;;;5095941;28;20203;-74
2022/09/06 07:09:25;;;;;;;2.50;1.37;;;14.60;99.90;;;;;;5083025;28;20211;-73
2022/09/06 07:11:53;;;;;;;6.73;1.27;;;14.50;99.90;;;;;;5075383;28;20175;-75
2022/09/06 07:14:20;;;;;;;3.20;1.33;;;14.40;99.90;;;;;;5073867;28;20571;-74
2022/09/06 07:16:48;;;;;;;2.23;1.37;;;14.30;99.90;;;;;;5075278;28;20178;-73
2022/09/06 07:19:15;;;;;;;4.57;1.50;;;14.30;99.90;;;;;;5075097;28;20259;-73
2022/09/06 07:21:42;;;;;;;6.70;1.90;;;14.30;99.90;;;;;;5074400;28;20223;-73
2022/09/06 07:24:10;;;;;;;5.13;1.73;;;14.30;99.90;;;;;;5074891;28;20168;-72
2022/09/06 07:26:38;;;;;;;3.90;2.10;;;14.30;99.90;;;;;;5073536;28;20259;-74
2022/09/06 07:29:07;;;;;;;6.30;1.90;;;14.30;99.90;;;;;;5074696;28;20175;-72
2022/09/06 07:31:38;;;;;;;3.43;1.70;;;14.40;99.90;;;;;;5073548;28;20192;-73
2022/09/06 07:34:06;;;;;;;6.60;1.87;;;14.40;99.90;;;;;;5074574;28;20172;-74
2022/09/06 07:36:34;;;;;;;10.20;1.90;;;14.40;99.90;;;;;;5078245;28;20172;-72
2022/09/06 07:39:06;;;;;;;6.57;2.67;;;14.30;99.90;;;;;;5073987;28;20303;-71
2022/09/06 07:41:34;;;;;;;5.10;1.80;;;14.20;99.90;;;;;;5053362;28;20283;-73
2022/09/06 07:44:07;;;;;;;6.17;1.73;;;14.20;99.90;;;;;;5068220;28;20398;-74
2022/09/06 07:46:41;;;;;;;8.53;1.73;;;14.00;99.90;;;;;;5076915;28;20425;-72
2022/09/06 07:49:11;;;;;;;3.97;1.77;;;13.90;99.90;;;;;;5076393;28;20198;-73
2022/09/06 07:51:41;;;;;;;7.47;1.97;;;13.80;99.90;;;;;;5095355;28;20336;-72
2022/09/06 07:54:10;;;;;;;3.83;1.80;;;13.70;99.90;;;;;;5095322;28;20193;-74
2022/09/06 07:56:38;;;;;;;5.43;1.43;;;13.70;99.90;;;;;;5079413;28;20671;-74
2022/09/06 07:59:06;;;;;;;4.90;1.43;;;13.70;99.90;;;;;;5073052;28;20763;-74
2022/09/06 08:01:36;;;;;;;4.90;1.50;;;13.60;99.90;;;;;;5060698;28;20223;-73
2022/09/06 08:04:14;;;;;;;3.47;1.40;;;13.60;99.90;;;;;;5054257;28;20322;-72
2022/09/06 08:06:50;;;;;;;4.07;1.00;;;13.50;99.90;;;;;;5054129;28;20293;-72
2022/09/06 08:09:17;;;;;;;4.17;1.40;;;13.50;99.90;;;;;;5067663;28;20247;-74
2022/09/06 08:11:44;;;;;;;3.43;1.43;;;13.50;99.90;;;;;;5071875;28;20191;-73
2022/09/06 08:14:12;;;;;;;2.70;1.10;;;13.50;99.90;;;;;;5073091;28;20647;-75
2022/09/06 08:16:39;;;;;;;2.27;1.10;;;13.40;99.90;;;;;;5073978;28;20172;-73
2022/09/06 08:19:07;;;;;;;2.87;1.30;;;13.40;99.90;;;;;;5073588;28;20182;-73
2022/09/06 08:21:35;;;;;;;4.00;1.00;;;13.30;99.90;;;;;;5070545;28;20261;-73
2022/09/06 08:24:10;;;;;;;3.20;1.10;;;13.30;99.90;;;;;;5073791;28;20184;-74
2022/09/06 08:26:42;;;;;;;2.83;1.10;;;13.30;99.90;;;;;;5071579;28;20195;-73
2022/09/06 08:29:10;;;;;;;1.57;1.00;;;13.20;99.90;;;;;;5066098;28;20295;-72
2022/09/06 08:31:41;;;;;;;2.60;1.17;;;13.20;99.90;;;;;;5061535;28;20231;-72
2022/09/06 08:34:11;;;;;;;3.07;1.20;;;13.10;99.90;;;;;;5072636;28;20186;-73
2022/09/06 08:36:39;;;;;;;2.83;1.50;;;13.10;99.90;;;;;;5072412;28;20191;-73
2022/09/06 08:39:08;;;;;;;5.03;1.20;;;13.00;99.90;;;;;;5071936;28;20661;-72
2022/09/06 08:41:48;;;;;;;3.07;1.43;;;12.90;99.90;;;;;;5071605;28;20322;-71
2022/09/06 08:44:43;;;;;;;2.60;1.63;;;12.90;99.90;;;;;;5073237;28;20186;-72
2022/09/06 08:47:15;;;;;;;1.63;1.13;;;12.80;99.90;;;;;;5061260;28;20195;-73
2022/09/06 08:49:46;;;;;;;3.50;1.20;;;12.80;99.90;;;;;;5072734;28;20222;-72
2022/09/06 08:52:31;;;;;;;5.13;1.33;;;12.70;99.90;;;;;;5073567;28;20492;-72
2022/09/06 08:55:01;;;;;;;4.43;1.53;;;12.70;99.90;;;;;;5073545;28;20181;-74
2022/09/06 08:57:49;;;;;;;4.27;1.60;;;12.60;99.90;;;;;;5073179;28;20185;-71
2022/09/06 09:00:19;;;;;;;2.67;1.30;;;12.50;99.90;;;;;;5054473;28;20184;-74
2022/09/06 09:03:09;;;;;;;2.17;1.60;;;12.50;99.90;;;;;;5054624;28;20260;-73
2022/09/06 09:05:39;;;;;;;5.90;1.60;;;12.40;99.90;;;;;;5072188;28;20178;-74
2022/09/06 09:08:37;;;;;;;1.47;1.30;;;12.30;99.90;;;;;;5072946;28;20174;-71
2022/09/06 09:11:10;;;;;;;3.00;1.60;;;12.30;99.90;;;;;;5073178;28;20541;-73
2022/09/06 09:13:46;;;;;;;5.23;1.70;;;12.30;99.90;;;;;;5073003;28;20557;-73
2022/09/06 09:16:14;;;;;;;6.33;2.03;;;12.20;99.90;;;;;;5072987;28;20300;-71
2022/09/06 09:18:53;;;;;;;3.87;1.77;;;12.10;99.90;;;;;;5072578;28;20182;-71
2022/09/06 09:21:23;;;;;;;4.90;2.03;;;12.10;99.90;;;;;;5071524;28;20236;-72
2022/09/06 09:24:02;;;;;;;4.33;1.83;;;12.00;99.90;;;;;;5072492;28;20605;-73
2022/09/06 09:26:51;;;;;;;3.27;1.63;;;12.00;99.90;;;;;;5072825;28;20647;-73
2022/09/06 09:29:20;;;;;;;4.33;2.00;;;11.90;99.90;;;;;;5072586;28;20213;-72
2022/09/06 09:31:55;;;;;;;2.87;1.60;;;11.80;99.90;;;;;;5069940;28;20189;-72
2022/09/06 09:34:33;;;;;;;2.17;1.50;;;11.80;99.90;;;;;;5071922;28;20248;-72
2022/09/06 09:37:28;;;;;;;3.40;1.63;;;11.80;99.90;;;;;;5071178;28;20239;-71
2022/09/06 09:39:57;;;;;;;2.40;1.40;;;11.70;99.90;;;;;;5056609;28;20181;-72
2022/09/06 09:42:36;;;;;;;2.63;1.60;;;11.70;99.90;;;;;;5070727;28;20228;-73
2022/09/06 09:45:22;;;;;;;3.73;1.90;;;11.60;99.90;;;;;;5071952;28;20183;-74
2022/09/06 09:47:51;;;;;;;3.03;2.10;;;11.50;99.90;;;;;;5071778;28;20182;-74
2022/09/06 09:50:30;;;;;;;4.27;1.97;;;11.50;99.90;;;;;;5071045;28;20198;-73
2022/09/06 09:53:12;;;;;;;5.03;2.20;;;11.50;99.90;;;;;;5072045;28;20191;-72
2022/09/06 09:55:41;;;;;;;3.53;1.87;;;11.50;99.90;;;;;;5072248;28;20189;-74
2022/09/06 09:58:26;;;;;;;3.97;2.03;;;11.50;99.90;;;;;;5071618;28;20189;-73
2022/09/06 10:01:14;;;;;;;5.73;2.23;;;11.50;99.90;;;;;;5071771;28;20273;-73
2022/09/06 10:03:48;;;;;;;6.00;2.33;;;11.50;99.90;;;;;;5071813;28;20209;-73
2022/09/06 10:06:24;;;;;;;5.07;2.30;;;11.60;99.90;;;;;;5071923;28;20193;-72
2022/09/06 10:08:53;;;;;;;4.60;3.07;;;11.60;99.90;;;;;;5071118;28;20184;-73
2022/09/06 10:11:53;;;;;;;4.70;2.37;;;11.70;99.90;;;;;;5070946;28;20182;-69
2022/09/06 10:14:47;;;;;;;5.27;2.67;;;11.80;99.90;;;;;;5058618;28;20218;-71
2022/09/06 10:17:33;;;;;;;7.30;2.90;;;11.90;99.90;;;;;;5073055;28;20580;-74
2022/09/06 10:20:11;;;;;;;5.97;3.40;;;12.00;99.90;;;;;;5051373;28;20195;-73
2022/09/06 10:22:52;;;;;;;7.30;3.50;;;12.00;99.90;;;;;;5070044;28;20644;-73
2022/09/06 10:25:44;;;;;;;6.37;4.03;;;12.10;99.90;;;;;;5073327;28;20179;-74
2022/09/06 10:28:35;;;;;;;7.30;3.97;;;12.10;99.90;;;;;;5072856;28;20230;-72
2022/09/06 10:31:35;;;;;;;8.07;3.23;;;12.20;99.90;;;;;;5073677;28;20707;-72
2022/09/06 10:34:43;;;;;;;7.77;2.60;;;12.20;99.90;;;;;;5072122;28;20718;-74
2022/09/06 10:37:39;;;;;;;4.07;2.70;;;12.20;99.90;;;;;;5072620;28;20173;-71
2022/09/06 10:40:09;;;;;;;8.37;3.10;;;12.20;99.90;;;;;;5053051;28;20187;-73
2022/09/06 10:42:57;;;;;;;4.83;2.50;;;12.20;99.90;;;;;;5053082;28;20621;-74
2022/09/06 10:45:47;;;;;;;3.07;2.47;;;12.30;99.90;;;;;;5053359;28;20206;-76
2022/09/06 10:48:38;;;;;;;9.40;3.10;;;12.30;99.90;;;;;;5058038;28;20171;-72
2022/09/06 10:51:26;;;;;;;6.20;2.83;;;12.30;99.90;;;;;;5073238;28;20208;-76
2022/09/06 10:54:02;;;;;;;11.10;3.40;;;12.40;99.90;;;;;;5072196;28;20178;-74
2022/09/06 10:57:10;;;;;;;9.33;3.73;;;12.30;99.90;;;;;;5073136;28;20601;-72
2022/09/06 10:59:49;;;;;;;5.20;2.73;;;12.30;99.90;;;;;;5072885;28;20174;-70
2022/09/06 11:02:39;;;;;;;8.10;3.23;;;12.30;99.90;;;;;;5072854;28;20269;-73
2022/09/06 11:05:21;;;;;;;7.93;3.47;;;12.30;99.90;;;;;;5073123;28;20210;-77
2022/09/06 11:08:00;;;;;;;9.80;3.43;;;12.30;99.90;;;;;;5072867;28;20174;-73
2022/09/06 11:10:39;;;;;;;4.83;3.30;;;12.30;99.90;;;;;;5073412;28;20187;-75
2022/09/06 11:13:18;;;;;;;7.00;3.20;;;12.30;99.90;;;;;;5071648;28;20179;-71
2022/09/06 11:16:11;;;;;;;5.90;3.13;;;12.40;99.90;;;;;;5072994;28;20218;-75
2022/09/06 11:18:48;;;;;;;6.37;3.60;;;12.40;99.90;;;;;;5073418;28;20214;-71
2022/09/06 11:21:50;;;;;;;9.13;3.80;;;12.30;99.90;;;;;;5072848;28;20218;-72
2022/09/06 11:24:47;;;;;;;5.40;3.63;;;12.30;99.90;;;;;;5073265;28;20236;-73
2022/09/06 11:27:35;;;;;;;6.83;3.50;;;12.30;99.90;;;;;;5073127;28;20574;-74
2022/09/06 11:30:05;;;;;;;5.37;3.63;;;12.30;99.90;;;;;;5072601;28;20167;-72
2022/09/06 11:32:47;;;;;;;7.47;3.50;;;12.30;99.90;;;;;;5072747;28;20539;-72
2022/09/06 11:35:26;;;;;;;4.60;3.10;;;12.30;99.90;;;;;;5072775;28;20196;-72
2022/09/06 11:38:15;;;;;;;5.50;3.30;;;12.30;99.90;;;;;;5073400;28;20178;-71
2022/09/06 11:40:47;;;;;;;7.93;4.37;;;12.30;99.90;;;;;;5072997;28;20294;-72
2022/09/06 11:43:34;;;;;;;12.17;6.30;;;12.30;99.90;;;;;;5072563;28;20191;-73
2022/09/06 11:46:05;;;;;;;8.63;5.50;;;12.30;99.90;;;;;;5072834;28;20209;-72
2022/09/06 11:48:42;;;;;;;8.67;5.10;;;12.20;99.90;;;;;;5076023;28;20260;-74
2022/09/06 11:51:11;;;;;;;9.07;5.03;;;12.10;99.90;;;;;;5076173;28;20178;-73
2022/09/06 11:53:51;;;;;;;6.43;4.23;;;12.10;99.90;;;;;;5076099;28;20642;-72
2022/09/06 11:56:29;;;;;;;8.93;4.40;;;12.10;99.90;;;;;;5076059;28;20179;-73
2022/09/06 11:59:18;;;;;;;7.87;3.30;;;12.00;99.90;;;;;;5076271;28;20608;-71
2022/09/06 12:02:05;;;;;;;6.67;3.17;;;11.90;99.90;;;;;;5075930;28;20725;-71
2022/09/06 12:05:03;;;;;;;6.57;3.17;;;12.00;99.90;;;;;;5074638;28;20234;-71
2022/09/06 12:07:32;;;;;;;4.23;3.07;;;11.90;99.90;;;;;;5075871;28;20747;-72
2022/09/06 12:10:33;;;;;;;5.87;3.37;;;11.90;99.90;;;;;;5075931;28;20175;-72
2022/09/06 12:13:01;;;;;;;5.63;3.37;;;11.80;99.90;;;;;;5075697;28;20177;-72
2022/09/06 12:15:53;;;;;;;6.83;3.47;;;11.80;99.90;;;;;;5075687;28;20206;-70
2022/09/06 12:18:48;;;;;;;7.10;3.73;;;11.80;99.90;;;;;;5075806;28;20187;-72
2022/09/06 12:21:46;;;;;;;4.73;3.53;;;11.70;99.90;;;;;;5074176;28;20217;-72
2022/09/06 12:24:35;;;;;;;4.50;3.43;;;11.60;99.90;;;;;;5075637;28;20192;-71
2022/09/06 12:27:21;;;;;;;5.80;3.33;;;11.60;99.90;;;;;;5075652;28;20177;-72
2022/09/06 12:30:03;;;;;;;4.77;2.77;;;11.50;99.90;;;;;;5075282;28;20236;-72
2022/09/06 12:32:42;;;;;;;4.67;2.80;;;11.50;99.90;;;;;;5075385;28;20543;-73
2022/09/06 12:35:15;;;;;;;5.60;3.03;;;11.50;99.90;;;;;;5075210;28;20184;-72
2022/09/06 12:37:57;;;;;;;5.53;2.93;;;11.50;99.90;;;;;;5075651;28;20179;-72
2022/09/06 12:40:27;;;;;;;5.33;2.70;;;11.40;99.90;;;;;;5075406;28;20174;-73
2022/09/06 12:42:55;;;;;;;6.57;2.50;;;11.30;99.90;;;;;;5073711;28;20651;-70
2022/09/06 12:45:24;;;;;;;6.00;2.93;;;11.30;99.90;;;;;;5075005;28;20221;-71
2022/09/06 12:48:10;;;;;;;6.00;2.97;;;11.20;99.90;;;;;;5074988;28;20188;-72
2022/09/06 12:50:39;;;;;;;4.50;3.23;;;11.20;99.90;;;;;;5075625;28;20182;-71
2022/09/06 12:53:26;;;;;;;5.73;3.70;;;11.10;99.90;;;;;;5074118;28;20172;-73
2022/09/06 12:56:05;;;;;;;6.77;2.97;;;11.10;99.90;;;;;;5073110;28;20185;-74
2022/09/06 12:58:34;;;;;;;6.60;3.30;;;10.90;99.90;;;;;;5072573;28;20179;-75
2022/09/06 13:01:09;;;;;;;5.20;3.00;;;10.90;99.90;;;;;;5074651;28;20579;-75
2022/09/06 13:03:52;;;;;;;4.10;2.90;;;10.80;99.90;;;;;;5074361;28;20667;-72
2022/09/06 13:06:23;;;;;;;4.53;2.80;;;10.80;99.90;;;;;;5065821;28;20652;-73
2022/09/06 13:08:54;;;;;;;5.83;2.50;;;10.80;99.90;;;;;;5074496;28;20203;-71
2022/09/06 13:11:24;;;;;;;4.97;2.30;;;10.70;99.90;;;;;;5074655;28;20271;-72
2022/09/06 13:13:53;;;;;;;3.47;2.40;;;10.70;99.90;;;;;;5074345;28;20180;-72
2022/09/06 13:16:34;;;;;;;4.03;2.73;;;10.60;99.90;;;;;;5074283;28;20174;-72
2022/09/06 13:19:17;;;;;;;5.33;2.50;;;10.60;99.90;;;;;;5074145;28;20184;-72
2022/09/06 13:21:46;;;;;;;4.67;2.43;;;10.60;99.90;;;;;;5074013;28;20207;-72
2022/09/06 13:24:35;;;;;;;3.73;3.13;;;10.50;99.90;;;;;;5074213;28;20175;-72